createdAt,value
2022-09-03T00:05:01.058Z,7.30
2022-09-03T00:10:11.547Z,7.10
2022-09-03T00:15:19.999Z,11.70
2022-09-03T00:20:33.130Z,7.20
2022-09-03T00:25:41.467Z,7.40
2022-09-03T00:30:44.280Z,7.80
2022-09-03T00:36:03.502Z,8.30
2022-09-03T00:41:18.233Z,9.50
2022-09-03T00:46:53.286Z,9.90
2022-09-03T00:52:35.274Z,12.10
2022-09-03T00:58:16.499Z,10.80
2022-09-03T01:03:43.851Z,9.50
2022-09-03T01:09:25.292Z,8.80
2022-09-03T01:15:12.903Z,10.60
2022-09-03T01:20:52.163Z,12.10
2022-09-03T01:31:35.413Z,10.60
2022-09-03T01:36:59.677Z,10.90
2022-09-03T01:42:23.712Z,8.20
2022-09-03T01:47:50.481Z,7.60
2022-09-03T01:53:34.445Z,9.90
2022-09-03T01:58:49.928Z,8.20
2022-09-03T02:03:59.671Z,9.40
2022-09-03T02:09:02.421Z,9.00
2022-09-03T02:14:05.408Z,10.30
2022-09-03T02:19:12.111Z,9.50
2022-09-03T02:24:14.875Z,8.30
2022-09-03T02:29:17.818Z,9.40
2022-09-03T02:34:20.583Z,7.40
2022-09-03T02:39:23.345Z,10.70
2022-09-03T02:44:31.889Z,6.70
2022-09-03T02:49:34.688Z,8.60
2022-09-03T02:54:39.933Z,7.90
2022-09-03T02:59:46.484Z,8.90
2022-09-03T03:04:49.305Z,7.50
2022-09-03T03:09:52.575Z,7.20
2022-09-03T03:14:56.365Z,6.70
2022-09-03T03:19:59.118Z,8.30
2022-09-03T03:25:01.942Z,7.10
2022-09-03T03:30:07.697Z,8.40
2022-09-03T03:35:11.901Z,8.90
2022-09-03T03:40:15.488Z,7.30
2022-09-03T03:45:18.319Z,7.70
2022-09-03T03:50:21.138Z,9.50
2022-09-03T03:55:27.026Z,6.20
2022-09-03T04:00:29.995Z,9.00
2022-09-03T04:05:33.764Z,8.00
2022-09-03T04:10:37.245Z,7.00
2022-09-03T04:15:40.967Z,9.70
2022-09-03T04:20:44.756Z,6.00
2022-09-03T04:25:53.222Z,8.90
2022-09-03T04:31:00.961Z,8.50
2022-09-03T04:36:08.616Z,4.80
2022-09-03T04:41:16.962Z,5.30
2022-09-03T04:46:20.913Z,11.30
2022-09-03T04:51:27.525Z,7.10
2022-09-03T04:56:35.064Z,7.60
2022-09-03T05:01:38.842Z,8.20
2022-09-03T05:06:43.387Z,8.00
2022-09-03T05:11:46.793Z,7.50
2022-09-03T05:16:53.154Z,8.30
2022-09-03T05:21:56.307Z,7.20
2022-09-03T05:26:59.081Z,7.50
2022-09-03T05:32:02.885Z,6.30
2022-09-03T05:37:06.016Z,5.70
2022-09-03T05:42:09.155Z,6.70
2022-09-03T05:47:16.294Z,6.60
2022-09-03T05:52:21.845Z,5.30
2022-09-03T05:57:25.483Z,4.70
2022-09-03T06:02:28.790Z,5.30
2022-09-03T06:07:34.345Z,5.70
2022-09-03T06:12:37.653Z,5.10
2022-09-03T06:17:40.617Z,6.00
2022-09-03T06:22:53.049Z,7.00
2022-09-03T06:27:56.555Z,3.60
2022-09-03T06:32:59.486Z,5.80
2022-09-03T06:38:03.082Z,5.60
2022-09-03T06:43:05.857Z,5.60
2022-09-03T06:48:08.597Z,4.90
2022-09-03T06:53:11.720Z,4.30
2022-09-03T06:58:14.738Z,5.60
2022-09-03T07:03:17.802Z,6.40
2022-09-03T07:08:20.685Z,6.10
2022-09-03T07:13:24.776Z,8.00
2022-09-03T07:18:27.596Z,4.30
2022-09-03T07:23:30.544Z,3.80
2022-09-03T07:28:35.781Z,4.60
2022-09-03T07:33:39.675Z,3.50
2022-09-03T07:38:46.388Z,5.40
2022-09-03T07:43:49.277Z,3.30
2022-09-03T07:48:53.996Z,5.00
2022-09-03T07:53:59.299Z,3.30
2022-09-03T07:59:03.446Z,3.70
2022-09-03T08:04:09.592Z,4.00
2022-09-03T08:09:14.005Z,4.80
2022-09-03T08:14:17.873Z,4.40
2022-09-03T08:19:22.369Z,2.90
2022-09-03T08:24:26.438Z,5.10
2022-09-03T08:29:29.220Z,4.70
2022-09-03T08:34:32.440Z,3.00
2022-09-03T08:39:35.261Z,2.70
2022-09-03T08:45:06.755Z,3.50
2022-09-03T08:50:51.618Z,2.30
2022-09-03T08:55:58.889Z,3.80
2022-09-03T09:01:57.285Z,4.30
2022-09-03T09:07:12.668Z,5.70
2022-09-03T09:13:02.134Z,1.80
2022-09-03T09:18:34.840Z,1.90
2022-09-03T09:23:44.850Z,2.10
2022-09-03T09:29:10.556Z,3.80
2022-09-03T09:34:13.471Z,3.30
2022-09-03T09:39:16.596Z,2.60
2022-09-03T09:44:21.128Z,1.50
2022-09-03T09:49:44.060Z,3.00
2022-09-03T09:54:46.959Z,3.90
2022-09-03T09:59:50.501Z,1.60
2022-09-03T10:05:13.105Z,1.60
2022-09-03T10:10:22.343Z,4.20
2022-09-03T10:15:36.766Z,2.10
2022-09-03T10:20:47.291Z,4.10
2022-09-03T10:26:15.170Z,3.20
2022-09-03T10:31:21.762Z,2.60
2022-09-03T10:36:35.826Z,1.60
2022-09-03T10:42:02.574Z,1.90
2022-09-03T10:47:29.980Z,1.80
2022-09-03T10:52:57.813Z,8.00
2022-09-03T10:58:23.763Z,2.40
2022-09-03T11:03:48.194Z,4.00
2022-09-03T11:09:02.083Z,2.70
2022-09-03T11:14:11.693Z,2.70
2022-09-03T11:19:20.724Z,1.40
2022-09-03T11:24:27.487Z,2.10
2022-09-03T11:29:55.549Z,2.70
2022-09-03T11:34:58.819Z,3.60
2022-09-03T11:40:17.123Z,2.40
2022-09-03T11:45:30.408Z,1.80
2022-09-03T11:50:34.050Z,2.10
2022-09-03T11:56:17.406Z,4.00
2022-09-03T12:01:20.261Z,1.60
2022-09-03T12:06:42.253Z,4.50
2022-09-03T12:11:51.907Z,3.60
2022-09-03T12:17:05.273Z,1.20
2022-09-03T12:22:15.052Z,1.80
2022-09-03T12:27:24.879Z,3.60
2022-09-03T12:32:37.338Z,3.50
2022-09-03T12:48:43.535Z,3.10
2022-09-03T12:53:47.270Z,1.40
2022-09-03T12:58:59.734Z,2.90
2022-09-03T13:04:17.858Z,4.30
2022-09-03T13:09:26.466Z,1.40
2022-09-03T13:14:29.250Z,3.30
2022-09-03T13:20:23.074Z,2.20
2022-09-03T13:25:39.931Z,1.70
2022-09-03T13:31:18.757Z,1.80
2022-09-03T13:36:29.004Z,2.50
2022-09-03T13:41:38.763Z,2.60
2022-09-03T13:46:45.775Z,2.50
2022-09-03T13:52:01.885Z,3.40
2022-09-03T13:57:09.020Z,2.10
2022-09-03T14:02:54.726Z,1.30
2022-09-03T14:08:15.619Z,2.30
2022-09-03T14:13:36.437Z,1.80
2022-09-03T14:19:01.762Z,1.20
2022-09-03T14:24:30.965Z,2.70
2022-09-03T14:29:35.590Z,3.20
2022-09-03T14:35:16.525Z,3.70
2022-09-03T14:40:40.802Z,1.40
2022-09-03T14:46:06.604Z,2.20
2022-09-03T14:51:26.113Z,1.20
2022-09-03T14:56:49.878Z,3.50
2022-09-03T15:02:10.880Z,2.50
2022-09-03T15:07:26.492Z,3.70
2022-09-03T15:12:40.732Z,2.30
2022-09-03T15:18:38.233Z,2.70
2022-09-03T15:24:07.288Z,1.80
2022-09-03T15:29:52.167Z,4.50
2022-09-03T15:35:35.174Z,2.90
2022-09-03T15:41:01.228Z,2.20
2022-09-03T15:46:13.858Z,3.10
2022-09-03T15:51:27.385Z,2.20
2022-09-03T15:56:38.629Z,3.20
2022-09-03T16:02:11.017Z,6.40
2022-09-03T16:07:45.270Z,3.50
2022-09-03T16:13:05.782Z,2.30
2022-09-03T16:18:27.623Z,3.40
2022-09-03T16:23:40.483Z,4.80
2022-09-03T16:29:10.337Z,4.60
2022-09-03T16:34:21.020Z,3.90
2022-09-03T16:39:43.098Z,4.50
2022-09-03T16:45:00.909Z,5.40
2022-09-03T16:50:18.479Z,7.80
2022-09-03T16:55:22.215Z,7.10
2022-09-03T17:00:42.604Z,5.10
2022-09-03T17:06:22.853Z,3.60
2022-09-03T17:11:57.078Z,5.70
2022-09-03T17:17:23.311Z,4.50
2022-09-03T17:22:51.297Z,3.90
2022-09-03T17:28:57.476Z,7.20
2022-09-03T17:34:35.700Z,3.10
2022-09-03T17:40:17.696Z,3.90
2022-09-03T17:46:08.187Z,4.80
2022-09-03T17:51:25.610Z,9.30
2022-09-03T17:56:45.245Z,9.00
2022-09-03T18:02:31.213Z,6.50
2022-09-03T18:08:03.616Z,9.70
2022-09-03T18:13:53.269Z,7.70
2022-09-03T18:19:17.932Z,6.10
2022-09-03T18:25:17.551Z,6.10
2022-09-03T18:30:38.899Z,6.10
2022-09-03T18:36:03.330Z,9.30
2022-09-03T18:41:49.952Z,4.50
2022-09-03T18:48:07.530Z,8.30
2022-09-03T18:53:41.489Z,6.00
2022-09-03T18:59:27.896Z,6.80
2022-09-03T19:05:31.253Z,8.90
2022-09-03T19:11:35.011Z,7.10
2022-09-03T19:17:11.969Z,8.50
2022-09-03T19:23:00.244Z,9.70
2022-09-03T19:28:45.266Z,9.20
2022-09-03T19:34:14.258Z,8.00
2022-09-03T19:40:04.248Z,9.20
2022-09-03T19:45:49.014Z,11.10
2022-09-03T19:51:37.101Z,8.80
2022-09-03T19:56:58.950Z,11.00
2022-09-03T20:02:20.401Z,10.90
2022-09-03T20:07:41.930Z,7.20
2022-09-03T20:12:49.771Z,9.80
2022-09-03T20:18:21.127Z,9.00
2022-09-03T20:23:37.616Z,8.20
2022-09-03T20:28:59.220Z,9.10
2022-09-03T20:34:50.803Z,9.70
2022-09-03T20:40:20.919Z,7.90
2022-09-03T20:45:42.399Z,12.00
2022-09-03T20:50:59.555Z,8.90
2022-09-03T20:56:40.791Z,9.70
2022-09-03T21:03:01.863Z,9.90
2022-09-03T21:08:13.493Z,9.40
2022-09-03T21:14:07.109Z,8.80
2022-09-03T21:19:35.145Z,8.50
2022-09-03T21:25:04.840Z,10.50
2022-09-03T21:30:10.464Z,10.10
2022-09-03T21:35:36.043Z,11.60
2022-09-03T21:40:46.761Z,14.60
2022-09-03T21:46:05.051Z,10.90
2022-09-03T21:51:18.042Z,11.60
2022-09-03T21:57:12.453Z,11.10
2022-09-03T22:02:27.780Z,10.80
2022-09-03T22:08:12.085Z,11.30
2022-09-03T22:13:58.995Z,9.00
2022-09-03T22:19:01.760Z,14.10
2022-09-03T22:24:43.824Z,13.30
2022-09-03T22:30:11.494Z,12.50
2022-09-03T22:35:26.124Z,9.90
2022-09-03T22:40:52.287Z,10.50
2022-09-03T22:46:14.865Z,9.60
2022-09-03T22:51:21.482Z,11.00
2022-09-03T22:56:24.777Z,10.90
2022-09-03T23:01:43.541Z,14.00
2022-09-03T23:12:11.199Z,12.40
2022-09-03T23:17:20.302Z,14.60
2022-09-03T23:22:37.176Z,17.50
2022-09-03T23:27:43.842Z,14.40
2022-09-03T23:32:57.015Z,13.70
2022-09-03T23:38:49.547Z,15.20
2022-09-03T23:44:26.690Z,14.20
2022-09-03T23:49:52.201Z,11.70
2022-09-03T23:55:29.259Z,13.50
